createdAt,value
2017-03-14T00:00:37.482Z,1007.91
2017-03-14T00:01:37.508Z,1007.94
2017-03-14T00:02:37.536Z,1007.93
2017-03-14T00:03:37.569Z,1007.9
2017-03-14T00:04:37.593Z,1007.87
2017-03-14T00:05:37.621Z,1007.9
2017-03-14T00:06:37.651Z,1007.88
2017-03-14T00:07:37.675Z,1007.88
2017-03-14T00:08:37.705Z,1007.88
2017-03-14T00:09:37.732Z,1007.86
2017-03-14T00:10:37.758Z,1007.85
2017-03-14T00:11:37.791Z,1007.84
2017-03-14T00:12:37.816Z,1007.8
2017-03-14T00:13:37.847Z,1007.8
2017-03-14T00:14:37.871Z,1007.84
2017-03-14T00:15:37.896Z,1007.81
2017-03-14T00:16:37.931Z,1007.81
2017-03-14T00:17:37.955Z,1007.82
2017-03-14T00:18:37.983Z,1007.89
2017-03-14T00:19:38.014Z,1007.87
2017-03-14T00:20:38.040Z,1007.9
2017-03-14T00:21:38.070Z,1007.93
2017-03-14T00:22:38.099Z,1007.92
2017-03-14T00:23:38.126Z,1007.93
2017-03-14T00:24:38.152Z,1007.91
2017-03-14T00:25:38.181Z,1007.92
2017-03-14T00:26:38.205Z,1007.91
2017-03-14T00:27:38.230Z,1007.93
2017-03-14T00:28:38.264Z,1007.92
2017-03-14T00:29:38.296Z,1007.89
2017-03-14T00:30:38.317Z,1007.9
2017-03-14T00:31:38.351Z,1007.91
2017-03-14T00:32:38.374Z,1007.92
2017-03-14T00:33:38.403Z,1007.91
2017-03-14T00:34:38.430Z,1007.95
2017-03-14T00:35:38.460Z,1007.96
2017-03-14T00:36:38.488Z,1007.95
2017-03-14T00:37:38.514Z,1007.92
2017-03-14T00:38:38.543Z,1007.92
2017-03-14T00:39:38.577Z,1007.94
2017-03-14T00:40:38.601Z,1007.99
2017-03-14T00:41:38.633Z,1007.97
2017-03-14T00:42:38.655Z,1007.97
2017-03-14T00:43:38.683Z,1007.98
2017-03-14T00:44:38.712Z,1007.96
2017-03-14T00:45:38.731Z,1008.01
2017-03-14T00:46:38.763Z,1008.05
2017-03-14T00:47:38.793Z,1008
2017-03-14T00:48:38.825Z,1008.03
2017-03-14T00:49:38.850Z,1008.04
2017-03-14T00:50:38.872Z,1008
2017-03-14T00:51:38.905Z,1008
2017-03-14T00:52:38.933Z,1008.02
2017-03-14T00:53:38.963Z,1008.06
2017-03-14T00:54:39.006Z,1008.01
2017-03-14T00:55:39.016Z,1008.04
2017-03-14T00:56:39.040Z,1008.09
2017-03-14T00:57:39.073Z,1008.11
2017-03-14T00:58:39.102Z,1008.09
2017-03-14T00:59:39.126Z,1008.12
2017-03-14T01:00:39.159Z,1008.08
2017-03-14T01:01:39.183Z,1008.09
2017-03-14T01:02:39.213Z,1008.05
2017-03-14T01:03:39.238Z,1008.07
2017-03-14T01:04:39.267Z,1008.14
2017-03-14T01:05:39.294Z,1008.13
2017-03-14T01:06:39.324Z,1008.09
2017-03-14T01:07:39.349Z,1008.08
2017-03-14T01:08:39.378Z,1008.09
2017-03-14T01:09:39.407Z,1008.09
2017-03-14T01:10:39.435Z,1008.13
2017-03-14T01:11:39.460Z,1008.12
2017-03-14T01:12:39.489Z,1008.18
2017-03-14T01:13:39.516Z,1008.18
2017-03-14T01:14:39.545Z,1008.14
2017-03-14T01:15:39.571Z,1008.1
2017-03-14T01:16:39.600Z,1008.09
2017-03-14T01:17:39.628Z,1008.1
2017-03-14T01:18:39.653Z,1008.11
2017-03-14T01:19:39.686Z,1008.09
2017-03-14T01:20:39.715Z,1008.12
2017-03-14T01:21:39.740Z,1008.09
2017-03-14T01:22:39.768Z,1008.07
2017-03-14T01:23:39.796Z,1008.06
2017-03-14T01:24:39.825Z,1008.03
2017-03-14T01:25:39.851Z,1008.04
2017-03-14T01:26:39.879Z,1008.01
2017-03-14T01:27:39.906Z,1008.03
2017-03-14T01:28:39.932Z,1008.02
2017-03-14T01:29:39.961Z,1008.04
2017-03-14T01:30:40.242Z,1008.07
2017-03-14T01:31:40.019Z,1008.05
2017-03-14T01:32:40.044Z,1008.08
2017-03-14T01:33:40.073Z,1008.07
2017-03-14T01:34:40.102Z,1008.08
2017-03-14T01:35:40.131Z,1008.02
2017-03-14T01:36:40.155Z,1008.03
2017-03-14T01:37:40.182Z,1007.95
2017-03-14T01:38:40.210Z,1007.98
2017-03-14T01:39:40.237Z,1007.99
2017-03-14T01:40:40.267Z,1008.01
2017-03-14T01:41:40.293Z,1008.09
2017-03-14T01:42:40.322Z,1008.04
2017-03-14T01:43:40.345Z,1008.01
2017-03-14T01:44:40.377Z,1008.01
2017-03-14T01:45:40.406Z,1007.97
2017-03-14T01:46:40.435Z,1008.01
2017-03-14T01:47:40.460Z,1008.02
2017-03-14T01:48:40.488Z,1008.03
2017-03-14T01:49:40.512Z,1008.08
2017-03-14T01:50:40.541Z,1008.07
2017-03-14T01:51:40.570Z,1008.02
2017-03-14T01:52:40.594Z,1008.03
2017-03-14T01:53:40.628Z,1007.98
2017-03-14T01:54:40.652Z,1008.01
2017-03-14T01:55:40.681Z,1008.02
2017-03-14T01:56:40.710Z,1007.99
2017-03-14T01:57:40.739Z,1008.04
2017-03-14T01:58:40.763Z,1007.97
2017-03-14T01:59:40.792Z,1008.01
2017-03-14T02:00:40.821Z,1008
2017-03-14T02:01:40.845Z,1008.02
2017-03-14T02:02:40.874Z,1008.09
2017-03-14T02:03:40.903Z,1008.1
2017-03-14T02:04:40.932Z,1008.18
2017-03-14T02:05:40.959Z,1008.14
2017-03-14T02:06:40.986Z,1008.17
2017-03-14T02:07:41.014Z,1008.17
2017-03-14T02:08:41.037Z,1008.1
2017-03-14T02:09:41.068Z,1008.09
2017-03-14T02:10:41.100Z,1008.1
2017-03-14T02:11:41.120Z,1008.13
2017-03-14T02:12:41.152Z,1008.06
2017-03-14T02:13:41.178Z,1008.03
2017-03-14T02:14:41.205Z,1008.02
2017-03-14T02:15:41.232Z,1008.01
2017-03-14T02:16:41.260Z,1008.05
2017-03-14T02:17:41.289Z,1008.02
2017-03-14T02:18:41.324Z,1008.04
2017-03-14T02:19:41.343Z,1007.98
2017-03-14T02:20:41.372Z,1007.96
2017-03-14T02:21:41.397Z,1007.99
2017-03-14T02:22:41.426Z,1007.98
2017-03-14T02:23:41.454Z,1008.06
2017-03-14T02:24:41.480Z,1008.06
2017-03-14T02:25:41.506Z,1008.05
2017-03-14T02:26:41.535Z,1008.08
2017-03-14T02:27:41.561Z,1008.03
2017-03-14T02:28:41.590Z,1008.08
2017-03-14T02:29:41.618Z,1008.06
2017-03-14T02:30:41.646Z,1008.06
2017-03-14T02:31:41.923Z,1008.01
2017-03-14T02:32:41.701Z,1008.05
2017-03-14T02:33:41.728Z,1008.05
2017-03-14T02:34:41.754Z,1008.05
2017-03-14T02:35:41.784Z,1008.09
2017-03-14T02:36:42.063Z,1008.07
2017-03-14T02:37:41.841Z,1008.08
2017-03-14T02:38:41.865Z,1008.09
2017-03-14T02:39:41.894Z,1008.11
2017-03-14T02:40:41.926Z,1008.12
2017-03-14T02:41:42.199Z,1008.1
2017-03-14T02:42:41.980Z,1008.1
2017-03-14T02:43:42.001Z,1008.15
2017-03-14T02:44:42.030Z,1008.15
2017-03-14T02:45:42.059Z,1008.16
2017-03-14T02:46:42.339Z,1008.15
2017-03-14T02:47:42.108Z,1008.14
2017-03-14T02:48:42.141Z,1008.17
2017-03-14T02:49:42.166Z,1008.19
2017-03-14T02:50:42.194Z,1008.2
2017-03-14T02:51:42.475Z,1008.2
2017-03-14T02:52:42.252Z,1008.22
2017-03-14T02:53:42.278Z,1008.24
2017-03-14T02:54:42.305Z,1008.27
2017-03-14T02:55:42.334Z,1008.19
2017-03-14T02:56:42.643Z,1008.24
2017-03-14T02:57:42.384Z,1008.29
2017-03-14T02:58:42.416Z,1008.28
2017-03-14T02:59:42.445Z,1008.25
2017-03-14T03:00:42.469Z,1008.19
2017-03-14T03:01:42.750Z,1008.25
2017-03-14T03:02:42.527Z,1008.26
2017-03-14T03:03:42.553Z,1008.26
2017-03-14T03:04:42.577Z,1008.31
2017-03-14T03:05:42.601Z,1008.3
2017-03-14T03:06:42.886Z,1008.27
2017-03-14T03:07:42.663Z,1008.25
2017-03-14T03:08:42.688Z,1008.21
2017-03-14T03:09:42.716Z,1008.26
2017-03-14T03:10:42.745Z,1008.26
2017-03-14T03:11:43.021Z,1008.23
2017-03-14T03:12:42.799Z,1008.23
2017-03-14T03:13:42.824Z,1008.24
2017-03-14T03:14:42.853Z,1008.31
2017-03-14T03:15:42.876Z,1008.25
2017-03-14T03:16:43.162Z,1008.28
2017-03-14T03:17:42.934Z,1008.29
2017-03-14T03:18:42.962Z,1008.24
2017-03-14T03:19:42.988Z,1008.27
2017-03-14T03:20:43.017Z,1008.23
2017-03-14T03:21:43.324Z,1008.24
2017-03-14T03:22:43.074Z,1008.26
2017-03-14T03:23:43.099Z,1008.23
2017-03-14T03:24:43.128Z,1008.22
2017-03-14T03:25:43.148Z,1008.26
2017-03-14T03:26:43.181Z,1008.26
2017-03-14T03:27:43.213Z,1008.17
2017-03-14T03:28:43.238Z,1008.15
2017-03-14T03:29:43.263Z,1008.17
2017-03-14T03:30:43.292Z,1008.16
2017-03-14T03:31:43.317Z,1008.18
2017-03-14T03:32:43.346Z,1008.17
2017-03-14T03:33:43.369Z,1008.2
2017-03-14T03:34:43.398Z,1008.16
2017-03-14T03:35:43.428Z,1008.21
2017-03-14T03:36:43.450Z,1008.14
2017-03-14T03:37:43.483Z,1008.13
2017-03-14T03:38:43.510Z,1008.16
2017-03-14T03:39:43.540Z,1008.11
2017-03-14T03:40:43.561Z,1008.15
2017-03-14T03:41:43.592Z,1008.11
2017-03-14T03:42:43.617Z,1008.11
2017-03-14T03:43:43.646Z,1008.11
2017-03-14T03:44:43.674Z,1008.1
2017-03-14T03:45:43.699Z,1008.12
2017-03-14T03:46:43.728Z,1008.13
2017-03-14T03:47:43.753Z,1008.16
2017-03-14T03:48:43.781Z,1008.19
2017-03-14T03:49:43.811Z,1008.17
2017-03-14T03:50:43.835Z,1008.19
2017-03-14T03:51:43.863Z,1008.19
2017-03-14T03:52:43.892Z,1008.18
2017-03-14T03:53:43.917Z,1008.17
2017-03-14T03:54:43.946Z,1008.18
2017-03-14T03:55:43.975Z,1008.2
2017-03-14T03:56:44.000Z,1008.2
2017-03-14T03:57:44.028Z,1008.19
2017-03-14T03:58:44.077Z,1008.25
2017-03-14T03:59:44.080Z,1008.28
2017-03-14T04:00:44.111Z,1008.27
2017-03-14T04:01:44.136Z,1008.23
2017-03-14T04:02:44.164Z,1008.25
2017-03-14T04:03:44.193Z,1008.27
2017-03-14T04:04:44.217Z,1008.26
2017-03-14T04:05:44.246Z,1008.28
2017-03-14T04:06:44.273Z,1008.27
2017-03-14T04:07:44.300Z,1008.25
2017-03-14T04:08:44.363Z,1008.25
2017-03-14T04:09:44.355Z,1008.29
2017-03-14T04:10:44.382Z,1008.26
2017-03-14T04:11:44.412Z,1008.24
2017-03-14T04:12:44.436Z,1008.21
2017-03-14T04:13:44.465Z,1008.23
2017-03-14T04:14:44.489Z,1008.23
2017-03-14T04:15:44.517Z,1008.24
2017-03-14T04:16:44.541Z,1008.25
2017-03-14T04:17:44.571Z,1008.24
2017-03-14T04:18:44.600Z,1008.22
2017-03-14T04:19:44.633Z,1008.21
2017-03-14T04:20:44.655Z,1008.23
2017-03-14T04:21:44.683Z,1008.22
2017-03-14T04:22:44.706Z,1008.25
2017-03-14T04:23:44.736Z,1008.23
2017-03-14T04:24:44.759Z,1008.25
2017-03-14T04:25:44.787Z,1008.26
2017-03-14T04:26:44.814Z,1008.26
2017-03-14T04:27:44.846Z,1008.27
2017-03-14T04:28:44.869Z,1008.26
2017-03-14T04:29:44.922Z,1008.29
2017-03-14T04:30:44.929Z,1008.28
2017-03-14T04:31:44.948Z,1008.3
2017-03-14T04:32:44.982Z,1008.29
2017-03-14T04:33:45.007Z,1008.36
2017-03-14T04:34:45.037Z,1008.38
2017-03-14T04:35:45.061Z,1008.43
2017-03-14T04:36:45.090Z,1008.4
2017-03-14T04:37:45.114Z,1008.44
2017-03-14T04:38:45.144Z,1008.44
2017-03-14T04:39:45.172Z,1008.42
2017-03-14T04:40:45.201Z,1008.51
2017-03-14T04:41:45.225Z,1008.5
2017-03-14T04:42:45.258Z,1008.47
2017-03-14T04:43:45.278Z,1008.48
2017-03-14T04:44:45.307Z,1008.57
2017-03-14T04:45:45.335Z,1008.59
2017-03-14T04:46:45.360Z,1008.63
2017-03-14T04:47:45.425Z,1008.61
2017-03-14T04:48:45.415Z,1008.63
2017-03-14T04:49:45.439Z,1008.66
2017-03-14T04:50:45.468Z,1008.67
2017-03-14T04:51:45.496Z,1008.7
2017-03-14T04:52:45.526Z,1008.73
2017-03-14T04:53:45.549Z,1008.72
2017-03-14T04:54:45.579Z,1008.74
2017-03-14T04:55:45.604Z,1008.77
2017-03-14T04:56:45.632Z,1008.73
2017-03-14T04:57:45.911Z,1008.76
2017-03-14T04:58:45.685Z,1008.79
2017-03-14T04:59:45.715Z,1008.81
2017-03-14T05:00:45.735Z,1008.8
2017-03-14T05:01:45.768Z,1008.81
2017-03-14T05:02:46.043Z,1008.84
2017-03-14T05:03:45.822Z,1008.83
2017-03-14T05:04:45.850Z,1008.84
2017-03-14T05:05:45.875Z,1008.83
2017-03-14T05:06:45.908Z,1008.84
2017-03-14T05:07:46.184Z,1008.84
2017-03-14T05:08:45.957Z,1008.87
2017-03-14T05:09:45.990Z,1008.89
2017-03-14T05:10:46.012Z,1008.87
2017-03-14T05:11:46.040Z,1008.93
2017-03-14T05:12:46.316Z,1008.9
2017-03-14T05:13:46.092Z,1008.93
2017-03-14T05:14:46.122Z,1008.93
2017-03-14T05:15:46.147Z,1008.91
2017-03-14T05:16:46.176Z,1008.92
2017-03-14T05:17:46.200Z,1008.9
2017-03-14T05:18:46.222Z,1008.88
2017-03-14T05:19:46.259Z,1008.85
2017-03-14T05:20:46.280Z,1008.83
2017-03-14T05:21:46.311Z,1008.86
2017-03-14T05:22:46.336Z,1008.86
2017-03-14T05:23:46.365Z,1008.89
2017-03-14T05:24:46.394Z,1008.89
2017-03-14T05:25:46.413Z,1008.91
2017-03-14T05:26:46.446Z,1008.91
2017-03-14T05:27:46.475Z,1008.91
2017-03-14T05:28:46.500Z,1008.87
2017-03-14T05:29:46.525Z,1008.85
2017-03-14T05:30:46.550Z,1008.87
2017-03-14T05:31:46.583Z,1008.92
2017-03-14T05:32:46.608Z,1008.92
2017-03-14T05:33:46.636Z,1008.95
2017-03-14T05:34:46.661Z,1008.98
2017-03-14T05:35:46.690Z,1008.95
2017-03-14T05:36:46.719Z,1008.96
2017-03-14T05:37:46.742Z,1008.95
2017-03-14T05:38:46.771Z,1008.96
2017-03-14T05:39:46.796Z,1008.9
2017-03-14T05:40:46.825Z,1008.92
2017-03-14T05:41:46.849Z,1008.89
2017-03-14T05:42:46.878Z,1008.86
2017-03-14T05:43:46.903Z,1008.84
2017-03-14T05:44:46.933Z,1008.84
2017-03-14T05:45:46.962Z,1008.82
2017-03-14T05:46:46.986Z,1008.85
2017-03-14T05:47:47.015Z,1008.84
2017-03-14T05:48:47.036Z,1008.84
2017-03-14T05:49:47.068Z,1008.9
2017-03-14T05:50:47.098Z,1008.94
2017-03-14T05:51:47.121Z,1008.95
2017-03-14T05:52:47.148Z,1008.94
2017-03-14T05:53:47.175Z,1008.97
2017-03-14T05:54:47.204Z,1008.99
2017-03-14T05:55:47.229Z,1008.98
2017-03-14T05:56:47.256Z,1009
2017-03-14T05:57:47.285Z,1009.04
2017-03-14T05:58:47.311Z,1009.1
2017-03-14T05:59:47.340Z,1009.06
2017-03-14T06:00:47.369Z,1009.05
2017-03-14T06:01:47.392Z,1009.07
2017-03-14T06:02:47.419Z,1009.06
2017-03-14T06:03:47.447Z,1009.07
2017-03-14T06:04:47.477Z,1009.04
2017-03-14T06:05:47.504Z,1009.03
2017-03-14T06:06:47.529Z,1009.03
2017-03-14T06:07:47.557Z,1009.09
2017-03-14T06:08:47.589Z,1009.06
2017-03-14T06:09:47.611Z,1009.09
2017-03-14T06:10:47.640Z,1009.1
2017-03-14T06:11:47.667Z,1009.07
2017-03-14T06:12:47.690Z,1009.09
2017-03-14T06:13:47.719Z,1009.12
2017-03-14T06:14:47.747Z,1009.12
2017-03-14T06:15:47.776Z,1009.14
2017-03-14T06:16:47.801Z,1009.17
2017-03-14T06:17:47.829Z,1009.15
2017-03-14T06:18:47.858Z,1009.2
2017-03-14T06:19:47.879Z,1009.2
2017-03-14T06:20:47.911Z,1009.16
2017-03-14T06:21:47.934Z,1009.17
2017-03-14T06:22:47.963Z,1009.19
2017-03-14T06:23:47.993Z,1009.23
2017-03-14T06:24:48.019Z,1009.23
2017-03-14T06:25:48.048Z,1009.17
2017-03-14T06:26:48.076Z,1009.23
2017-03-14T06:27:48.100Z,1009.22
2017-03-14T06:28:48.128Z,1009.27
2017-03-14T06:29:48.154Z,1009.31
2017-03-14T06:30:48.183Z,1009.36
2017-03-14T06:31:48.214Z,1009.37
2017-03-14T06:32:48.237Z,1009.4
2017-03-14T06:33:48.517Z,1009.41
2017-03-14T06:34:48.294Z,1009.43
2017-03-14T06:35:48.319Z,1009.47
2017-03-14T06:36:48.347Z,1009.51
2017-03-14T06:37:48.375Z,1009.54
2017-03-14T06:38:48.649Z,1009.54
2017-03-14T06:39:48.430Z,1009.62
2017-03-14T06:40:48.456Z,1009.59
2017-03-14T06:41:48.482Z,1009.59
2017-03-14T06:42:48.508Z,1009.6
2017-03-14T06:43:48.789Z,1009.61
2017-03-14T06:44:48.565Z,1009.59
2017-03-14T06:45:48.590Z,1009.55
2017-03-14T06:46:48.619Z,1009.59
2017-03-14T06:47:48.648Z,1009.59
2017-03-14T06:48:48.924Z,1009.57
2017-03-14T06:49:48.701Z,1009.61
2017-03-14T06:50:48.727Z,1009.57
2017-03-14T06:51:48.756Z,1009.59
2017-03-14T06:52:48.785Z,1009.6
2017-03-14T06:53:49.061Z,1009.61
2017-03-14T06:54:48.842Z,1009.6
2017-03-14T06:55:48.866Z,1009.53
2017-03-14T06:56:48.890Z,1009.52
2017-03-14T06:57:48.920Z,1009.55
2017-03-14T06:58:49.201Z,1009.54
2017-03-14T06:59:48.973Z,1009.56
2017-03-14T07:00:49.002Z,1009.52
2017-03-14T07:01:49.030Z,1009.57
2017-03-14T07:02:49.056Z,1009.56
2017-03-14T07:03:49.336Z,1009.58
2017-03-14T07:04:49.113Z,1009.61
2017-03-14T07:05:49.165Z,1009.65
2017-03-14T07:06:49.167Z,1009.63
2017-03-14T07:07:49.194Z,1009.64
2017-03-14T07:08:49.221Z,1009.65
2017-03-14T07:09:49.247Z,1009.65
2017-03-14T07:10:49.278Z,1009.63
2017-03-14T07:11:49.298Z,1009.67
2017-03-14T07:12:49.331Z,1009.65
2017-03-14T07:13:49.356Z,1009.71
2017-03-14T07:14:49.385Z,1009.76
2017-03-14T07:15:49.413Z,1009.73
2017-03-14T07:16:49.442Z,1009.78
2017-03-14T07:17:49.466Z,1009.78
2017-03-14T07:18:49.496Z,1009.76
2017-03-14T07:19:49.520Z,1009.78
2017-03-14T07:20:49.546Z,1009.8
2017-03-14T07:21:49.577Z,1009.83
2017-03-14T07:22:49.608Z,1009.82
2017-03-14T07:23:49.626Z,1009.82
2017-03-14T07:24:49.659Z,1009.86
2017-03-14T07:25:49.688Z,1009.84
2017-03-14T07:26:49.718Z,1009.9
2017-03-14T07:27:49.742Z,1009.93
2017-03-14T07:28:49.772Z,1009.9
2017-03-14T07:29:49.800Z,1009.9
2017-03-14T07:30:49.821Z,1009.91
2017-03-14T07:31:49.874Z,1009.88
2017-03-14T07:32:49.882Z,1009.84
2017-03-14T07:33:49.906Z,1009.83
2017-03-14T07:34:49.936Z,1009.78
2017-03-14T07:35:49.963Z,1009.82
2017-03-14T07:36:49.990Z,1009.85
2017-03-14T07:37:50.018Z,1009.83
2017-03-14T07:38:50.047Z,1009.81
2017-03-14T07:39:50.075Z,1009.75
2017-03-14T07:40:50.104Z,1009.77
2017-03-14T07:41:50.129Z,1009.78
2017-03-14T07:42:50.158Z,1009.8
2017-03-14T07:43:50.187Z,1009.78
2017-03-14T07:44:50.215Z,1009.81
2017-03-14T07:45:50.236Z,1009.84
2017-03-14T07:46:50.268Z,1009.82
2017-03-14T07:47:50.298Z,1009.89
2017-03-14T07:48:50.322Z,1009.9
2017-03-14T07:49:50.351Z,1009.92
2017-03-14T07:50:50.379Z,1009.94
2017-03-14T07:51:50.408Z,1009.91
2017-03-14T07:52:50.433Z,1009.92
2017-03-14T07:53:50.461Z,1009.89
2017-03-14T07:54:50.490Z,1009.93
2017-03-14T07:55:50.519Z,1009.97
2017-03-14T07:56:50.545Z,1009.92
2017-03-14T07:57:50.573Z,1009.95
2017-03-14T07:58:50.602Z,1009.98
2017-03-14T07:59:50.627Z,1010
2017-03-14T08:00:50.656Z,1010.02
2017-03-14T08:01:50.684Z,1010.05
2017-03-14T08:02:50.712Z,1010.05
2017-03-14T08:03:50.737Z,1010.07
2017-03-14T08:04:50.766Z,1010.09
2017-03-14T08:05:50.795Z,1010.05
2017-03-14T08:06:50.820Z,1010.08
2017-03-14T08:07:50.848Z,1010.08
2017-03-14T08:08:50.877Z,1010.05
2017-03-14T08:09:50.906Z,1010.06
2017-03-14T08:10:50.934Z,1010.08
2017-03-14T08:11:50.964Z,1010.01
2017-03-14T08:12:50.988Z,1009.99
2017-03-14T08:13:51.016Z,1009.97
2017-03-14T08:14:51.046Z,1009.99
2017-03-14T08:15:51.073Z,1009.94
2017-03-14T08:16:51.101Z,1009.92
2017-03-14T08:17:51.129Z,1009.93
2017-03-14T08:18:51.160Z,1009.92
2017-03-14T08:19:51.181Z,1009.91
2017-03-14T08:20:51.210Z,1009.97
2017-03-14T08:21:51.235Z,1009.99
2017-03-14T08:22:51.264Z,1010
2017-03-14T08:23:51.293Z,1010.04
2017-03-14T08:24:51.318Z,1010.05
2017-03-14T08:25:51.346Z,1010.05
2017-03-14T08:26:51.379Z,1010.06
2017-03-14T08:27:51.403Z,1010.02
2017-03-14T08:28:51.432Z,1009.99
2017-03-14T08:29:51.461Z,1010.02
2017-03-14T08:30:51.490Z,1010.01
2017-03-14T08:31:51.519Z,1010
2017-03-14T08:32:51.547Z,1010.03
2017-03-14T08:33:51.575Z,1009.98
2017-03-14T08:34:51.600Z,1009.96
2017-03-14T08:35:51.630Z,1010.01
2017-03-14T08:36:51.655Z,1010.01
2017-03-14T08:37:51.683Z,1009.99
2017-03-14T08:38:51.710Z,1010.02
2017-03-14T08:39:51.741Z,1010.03
2017-03-14T08:40:51.766Z,1010.05
2017-03-14T08:41:51.793Z,1010.03
2017-03-14T08:42:51.825Z,1010.03
2017-03-14T08:43:51.848Z,1009.99
2017-03-14T08:44:51.876Z,1010.02
2017-03-14T08:45:51.905Z,1010.01
2017-03-14T08:46:51.934Z,1010.03
2017-03-14T08:47:51.969Z,1010
2017-03-14T08:48:51.987Z,1010.08
2017-03-14T08:49:52.012Z,1010.1
2017-03-14T08:50:52.045Z,1010.18
2017-03-14T08:51:52.073Z,1010.13
2017-03-14T08:52:52.102Z,1010.16
2017-03-14T08:53:52.126Z,1010.12
2017-03-14T08:54:52.407Z,1010.1
2017-03-14T08:55:52.185Z,1010.12
2017-03-14T08:56:52.214Z,1010.15
2017-03-14T08:57:52.246Z,1010.15
2017-03-14T08:58:52.266Z,1010.13
2017-03-14T08:59:52.295Z,1010.14
2017-03-14T09:00:52.324Z,1010.16
2017-03-14T09:01:52.349Z,1010.14
2017-03-14T09:02:52.374Z,1010.11
2017-03-14T09:03:52.407Z,1010.12
2017-03-14T09:04:52.433Z,1010.15
2017-03-14T09:05:52.468Z,1010.18
2017-03-14T09:06:52.493Z,1010.2
2017-03-14T09:07:52.518Z,1010.19
2017-03-14T09:08:52.545Z,1010.18
2017-03-14T09:09:52.575Z,1010.09
2017-03-14T09:10:52.603Z,1010.08
2017-03-14T09:11:52.633Z,1010.1
2017-03-14T09:12:52.661Z,1010.07
2017-03-14T09:13:52.690Z,1010.06
2017-03-14T09:14:52.715Z,1010.02
2017-03-14T09:15:52.748Z,1010.06
2017-03-14T09:16:52.773Z,1010.1
2017-03-14T09:17:52.801Z,1010.11
2017-03-14T09:18:52.830Z,1010.12
2017-03-14T09:19:52.854Z,1010.11
2017-03-14T09:20:52.888Z,1010.11
2017-03-14T09:21:52.916Z,1010.11
2017-03-14T09:22:52.945Z,1010.11
2017-03-14T09:23:52.970Z,1010.09
2017-03-14T09:24:52.998Z,1010.11
2017-03-14T09:25:53.027Z,1010.08
2017-03-14T09:26:53.059Z,1010.03
2017-03-14T09:27:53.083Z,1010.07
2017-03-14T09:28:53.114Z,1010.04
2017-03-14T09:29:53.142Z,1010.03
2017-03-14T09:30:53.171Z,1009.99
2017-03-14T09:31:53.196Z,1010
2017-03-14T09:32:53.221Z,1010.02
2017-03-14T09:33:53.254Z,1010
2017-03-14T09:34:53.278Z,1010
2017-03-14T09:35:53.309Z,1010.02
2017-03-14T09:36:53.339Z,1010.01
2017-03-14T09:37:53.363Z,1010.01
2017-03-14T09:38:53.393Z,1010
2017-03-14T09:39:53.422Z,1009.97
2017-03-14T09:40:53.450Z,1009.97
2017-03-14T09:41:53.479Z,1009.97
2017-03-14T09:42:53.508Z,1010.02
2017-03-14T09:43:53.537Z,1010.07
2017-03-14T09:44:53.567Z,1010
2017-03-14T09:45:53.591Z,1010.01
2017-03-14T09:46:53.619Z,1009.95
2017-03-14T09:47:53.648Z,1009.98
2017-03-14T09:48:53.676Z,1009.94
2017-03-14T09:49:53.705Z,1009.97
2017-03-14T09:50:53.736Z,1009.95
2017-03-14T09:51:53.763Z,1009.89
2017-03-14T09:52:53.792Z,1009.95
2017-03-14T09:53:53.821Z,1009.89
2017-03-14T09:54:53.846Z,1009.9
2017-03-14T09:55:53.875Z,1009.89
2017-03-14T09:56:53.904Z,1009.96
2017-03-14T09:57:53.931Z,1009.93
2017-03-14T09:58:53.960Z,1009.92
2017-03-14T09:59:53.989Z,1009.97
2017-03-14T10:00:54.017Z,1009.99
2017-03-14T10:01:54.044Z,1009.96
2017-03-14T10:02:54.075Z,1009.99
2017-03-14T10:03:54.099Z,1010
2017-03-14T10:04:54.127Z,1009.98
2017-03-14T10:05:54.157Z,1009.99
2017-03-14T10:06:54.189Z,1010
2017-03-14T10:07:54.215Z,1010
2017-03-14T10:08:54.243Z,1009.98
2017-03-14T10:09:54.273Z,1009.96
2017-03-14T10:10:54.304Z,1009.98
2017-03-14T10:11:54.330Z,1009.97
2017-03-14T10:12:54.359Z,1009.97
2017-03-14T10:13:54.387Z,1009.99
2017-03-14T10:14:54.417Z,1010.03
2017-03-14T10:15:54.441Z,1009.98
2017-03-14T10:16:54.471Z,1009.98
2017-03-14T10:17:54.499Z,1009.97
2017-03-14T10:18:54.528Z,1009.92
2017-03-14T10:19:54.556Z,1009.91
2017-03-14T10:20:54.585Z,1009.94
2017-03-14T10:21:54.613Z,1009.94
2017-03-14T10:22:54.643Z,1009.89
2017-03-14T10:23:54.671Z,1009.86
2017-03-14T10:24:54.699Z,1009.87
2017-03-14T10:25:54.728Z,1009.83
2017-03-14T10:26:54.757Z,1009.78
2017-03-14T10:27:54.782Z,1009.8
2017-03-14T10:28:54.811Z,1009.79
2017-03-14T10:29:54.840Z,1009.77
2017-03-14T10:30:54.867Z,1009.76
2017-03-14T10:31:54.897Z,1009.75
2017-03-14T10:32:54.926Z,1009.8
2017-03-14T10:33:54.955Z,1009.8
2017-03-14T10:34:54.984Z,1009.8
2017-03-14T10:35:55.011Z,1009.74
2017-03-14T10:36:55.041Z,1009.76
2017-03-14T10:37:55.069Z,1009.77
2017-03-14T10:38:55.098Z,1009.69
2017-03-14T10:39:55.127Z,1009.73
2017-03-14T10:40:55.156Z,1009.65
2017-03-14T10:41:55.180Z,1009.62
2017-03-14T10:42:55.212Z,1009.68
2017-03-14T10:43:55.242Z,1009.6
2017-03-14T10:44:55.266Z,1009.6
2017-03-14T10:45:55.297Z,1009.55
2017-03-14T10:46:55.320Z,1009.52
2017-03-14T10:47:55.354Z,1009.55
2017-03-14T10:48:55.381Z,1009.51
2017-03-14T10:49:55.410Z,1009.51
2017-03-14T10:50:55.442Z,1009.49
2017-03-14T10:51:55.467Z,1009.57
2017-03-14T10:52:55.493Z,1009.61
2017-03-14T10:53:55.526Z,1009.56
2017-03-14T10:54:55.554Z,1009.55
2017-03-14T10:55:55.583Z,1009.55
2017-03-14T10:56:55.612Z,1009.55
2017-03-14T10:57:55.641Z,1009.57
2017-03-14T10:58:55.669Z,1009.57
2017-03-14T10:59:55.698Z,1009.57
2017-03-14T11:00:55.725Z,1009.57
2017-03-14T11:01:55.751Z,1009.64
2017-03-14T11:02:55.784Z,1009.67
2017-03-14T11:03:55.813Z,1009.72
2017-03-14T11:04:55.841Z,1009.75
2017-03-14T11:05:55.870Z,1009.8
2017-03-14T11:06:55.901Z,1009.79
2017-03-14T11:07:55.927Z,1009.76
2017-03-14T11:08:55.956Z,1009.76
2017-03-14T11:09:55.987Z,1009.68
2017-03-14T11:10:56.014Z,1009.7
2017-03-14T11:11:56.042Z,1009.7
2017-03-14T11:12:56.071Z,1009.66
2017-03-14T11:13:56.101Z,1009.63
2017-03-14T11:14:56.129Z,1009.62
2017-03-14T11:15:56.157Z,1009.57
2017-03-14T11:16:56.186Z,1009.54
2017-03-14T11:17:56.215Z,1009.54
2017-03-14T11:18:56.244Z,1009.54
2017-03-14T11:19:56.273Z,1009.5
2017-03-14T11:20:56.301Z,1009.5
2017-03-14T11:21:56.330Z,1009.52
2017-03-14T11:22:56.359Z,1009.51
2017-03-14T11:23:56.388Z,1009.51
2017-03-14T11:24:56.418Z,1009.58
2017-03-14T11:25:56.446Z,1009.52
2017-03-14T11:26:56.474Z,1009.5
2017-03-14T11:27:56.502Z,1009.49
2017-03-14T11:28:56.531Z,1009.58
2017-03-14T11:29:56.559Z,1009.57
2017-03-14T11:30:56.589Z,1009.54
2017-03-14T11:31:56.617Z,1009.51
2017-03-14T11:32:56.646Z,1009.46
2017-03-14T11:33:56.670Z,1009.61
2017-03-14T11:34:56.703Z,1009.6
2017-03-14T11:35:56.983Z,1009.65
2017-03-14T11:36:56.761Z,1009.7
2017-03-14T11:37:56.790Z,1009.67
2017-03-14T11:38:56.822Z,1009.73
2017-03-14T11:39:56.843Z,1009.65
2017-03-14T11:40:57.132Z,1009.56
2017-03-14T11:41:56.908Z,1009.71
2017-03-14T11:42:56.937Z,1009.54
2017-03-14T11:43:56.966Z,1009.5
2017-03-14T11:44:56.995Z,1009.55
2017-03-14T11:45:57.270Z,1009.68
2017-03-14T11:46:57.052Z,1009.43
2017-03-14T11:47:57.081Z,1009.55
2017-03-14T11:48:57.110Z,1009.45
2017-03-14T11:49:57.138Z,1009.62
2017-03-14T11:50:57.415Z,1009.43
2017-03-14T11:51:57.195Z,1009.47
2017-03-14T11:52:57.225Z,1009.36
2017-03-14T11:53:57.254Z,1009.59
2017-03-14T11:54:57.283Z,1009.56
2017-03-14T11:55:57.311Z,1009.61
2017-03-14T11:56:57.343Z,1009.6
2017-03-14T11:57:57.368Z,1009.58
2017-03-14T11:58:57.405Z,1009.61
2017-03-14T11:59:57.430Z,1009.61
2017-03-14T12:00:57.459Z,1009.65
2017-03-14T12:01:57.490Z,1009.7
2017-03-14T12:02:57.520Z,1009.75
2017-03-14T12:03:57.545Z,1009.7
2017-03-14T12:04:57.574Z,1009.69
2017-03-14T12:05:57.602Z,1009.57
2017-03-14T12:06:57.631Z,1009.64
2017-03-14T12:07:57.663Z,1009.62
2017-03-14T12:08:57.693Z,1009.56
2017-03-14T12:09:57.722Z,1009.59